createdAt,value
2019-04-28T00:00:34.039Z,11.83
2019-04-28T00:03:02.806Z,11.85
2019-04-28T00:05:33.296Z,11.77
2019-04-28T00:08:02.121Z,11.77
2019-04-28T00:10:32.429Z,11.76
2019-04-28T00:13:01.095Z,11.76
2019-04-28T00:15:30.815Z,11.78
2019-04-28T00:18:01.580Z,11.77
2019-04-28T00:20:50.982Z,11.71
2019-04-28T00:23:38.130Z,11.74
2019-04-28T00:26:08.491Z,11.72
2019-04-28T00:28:37.278Z,11.73
2019-04-28T00:31:06.551Z,11.70
2019-04-28T00:33:35.286Z,11.71
2019-04-28T00:36:04.155Z,11.70
2019-04-28T00:38:32.867Z,11.69
2019-04-28T00:41:02.404Z,11.69
2019-04-28T00:43:31.841Z,11.70
2019-04-28T00:46:01.323Z,11.70
2019-04-28T00:48:30.920Z,11.68
2019-04-28T00:51:01.688Z,11.69
2019-04-28T00:53:31.066Z,11.68
2019-04-28T00:56:01.773Z,11.65
2019-04-28T00:58:31.898Z,11.65
2019-04-28T01:01:18.474Z,11.69
2019-04-28T01:03:47.240Z,11.69
2019-04-28T01:06:16.217Z,11.68
2019-04-28T01:08:45.062Z,11.68
2019-04-28T01:11:13.907Z,11.67
2019-04-28T01:13:42.604Z,11.65
2019-04-28T01:19:20.190Z,11.67
2019-04-28T01:22:05.482Z,11.67
2019-04-28T01:24:34.408Z,11.65
2019-04-28T01:27:03.274Z,11.62
2019-04-28T01:29:31.946Z,11.53
2019-04-28T01:32:08.124Z,11.56
2019-04-28T01:34:36.916Z,11.60
2019-04-28T01:37:07.462Z,11.58
2019-04-28T01:39:36.245Z,11.62
2019-04-28T01:42:06.449Z,11.58
2019-04-28T01:44:35.114Z,11.58
2019-04-28T01:47:03.835Z,11.58
2019-04-28T01:49:32.501Z,11.57
2019-04-28T01:52:01.967Z,11.58
2019-04-28T01:54:30.907Z,11.59
2019-04-28T01:57:01.402Z,11.60
2019-04-28T01:59:31.508Z,11.57
2019-04-28T02:02:00.391Z,11.57
2019-04-28T02:04:32.530Z,11.55
2019-04-28T02:07:04.084Z,11.54
2019-04-28T02:09:32.877Z,11.55
2019-04-28T02:12:01.563Z,11.55
2019-04-28T02:14:30.938Z,11.54
2019-04-28T02:17:00.503Z,11.56
2019-04-28T02:19:30.605Z,11.55
2019-04-28T02:22:02.587Z,11.56
2019-04-28T02:24:35.489Z,11.54
2019-04-28T02:27:04.640Z,11.51
2019-04-28T02:29:33.470Z,11.52
2019-04-28T02:32:02.659Z,11.48
2019-04-28T02:34:33.654Z,11.44
2019-04-28T02:37:02.402Z,11.40
2019-04-28T02:39:31.624Z,11.40
2019-04-28T02:42:01.388Z,11.42
2019-04-28T02:44:33.424Z,11.41
2019-04-28T02:47:01.282Z,11.40
2019-04-28T02:49:40.321Z,11.37
2019-04-28T02:54:50.975Z,11.36
2019-04-28T02:57:20.824Z,11.36
2019-04-28T02:59:50.854Z,11.32
2019-04-28T03:02:20.758Z,11.32
2019-04-28T03:04:50.815Z,11.32
2019-04-28T03:07:21.792Z,11.34
2019-04-28T03:09:52.951Z,11.30
2019-04-28T03:12:21.835Z,11.24
2019-04-28T03:14:51.972Z,11.18
2019-04-28T03:17:21.019Z,11.17
2019-04-28T03:19:51.719Z,11.22
2019-04-28T03:22:22.731Z,11.23
2019-04-28T03:24:53.030Z,11.23
2019-04-28T03:27:26.390Z,11.21
2019-04-28T03:29:56.701Z,10.70
2019-04-28T03:32:45.788Z,11.11
2019-04-28T03:35:06.004Z,11.12
2019-04-28T03:37:34.678Z,11.14
2019-04-28T03:40:07.062Z,11.11
2019-04-28T03:42:35.732Z,11.09
2019-04-28T03:45:07.053Z,11.08
2019-04-28T03:47:35.766Z,11.08
2019-04-28T03:50:06.423Z,11.08
2019-04-28T03:52:35.151Z,11.12
2019-04-28T03:55:04.467Z,11.13
2019-04-28T03:57:33.148Z,11.13
2019-04-28T04:00:02.050Z,11.12
2019-04-28T04:02:31.489Z,11.13
2019-04-28T04:05:03.299Z,11.13
2019-04-28T04:07:31.242Z,11.14
2019-04-28T04:10:11.180Z,11.13
2019-04-28T04:12:41.261Z,11.13
2019-04-28T04:15:24.494Z,11.05
2019-04-28T04:18:03.601Z,11.06
2019-04-28T04:20:32.608Z,11.12
2019-04-28T04:23:04.508Z,11.09
2019-04-28T04:25:33.192Z,11.10
2019-04-28T04:28:03.754Z,11.12
2019-04-28T04:30:32.712Z,11.14
2019-04-28T04:33:01.596Z,11.16
2019-04-28T04:35:31.624Z,11.16
2019-04-28T04:38:00.781Z,11.12
2019-04-28T04:40:31.646Z,11.10
2019-04-28T04:43:01.499Z,11.12
2019-04-28T04:45:30.783Z,11.14
2019-04-28T04:48:00.614Z,11.17
2019-04-28T04:50:31.632Z,11.17
2019-04-28T04:53:02.704Z,11.21
2019-04-28T04:55:32.040Z,11.22
2019-04-28T04:58:00.953Z,11.21
2019-04-28T05:00:31.317Z,11.20
2019-04-28T05:03:01.643Z,11.19
2019-04-28T05:05:32.034Z,11.19
2019-04-28T05:08:00.692Z,11.19
2019-04-28T05:10:30.382Z,11.20
2019-04-28T05:13:02.049Z,11.22
2019-04-28T05:15:30.746Z,11.22
2019-04-28T05:18:00.245Z,11.22
2019-04-28T05:20:30.270Z,11.21
2019-04-28T05:23:00.756Z,11.17
2019-04-28T05:25:33.936Z,11.17
2019-04-28T05:28:03.010Z,11.15
2019-04-28T05:30:34.905Z,11.14
2019-04-28T05:33:02.459Z,11.12
2019-04-28T05:35:31.236Z,11.14
2019-04-28T05:37:59.985Z,11.15
2019-04-28T05:40:29.601Z,11.06
2019-04-28T05:43:01.357Z,11.05
2019-04-28T05:45:32.131Z,11.05
2019-04-28T05:48:02.952Z,11.08
2019-04-28T05:50:36.790Z,11.07
2019-04-28T05:53:10.629Z,11.08
2019-04-28T05:55:53.216Z,11.11
2019-04-28T05:58:23.969Z,11.14
2019-04-28T06:00:57.031Z,11.12
2019-04-28T06:03:27.390Z,11.11
2019-04-28T06:05:57.176Z,11.09
2019-04-28T06:08:34.428Z,11.04
2019-04-28T06:11:04.797Z,10.99
2019-04-28T06:13:40.154Z,10.95
2019-04-28T06:16:09.562Z,10.88
2019-04-28T06:18:39.464Z,10.84
2019-04-28T06:21:08.781Z,10.80
2019-04-28T06:23:37.989Z,10.74
2019-04-28T06:26:06.759Z,10.69
2019-04-28T06:28:35.509Z,10.68
2019-04-28T06:31:04.314Z,10.71
2019-04-28T06:33:33.074Z,10.70
2019-04-28T06:36:01.857Z,10.65
2019-04-28T06:38:30.625Z,10.57
2019-04-28T06:40:59.296Z,10.50
2019-04-28T06:43:28.014Z,10.49
2019-04-28T06:45:56.753Z,10.49
2019-04-28T06:48:25.746Z,10.46
2019-04-28T06:50:54.429Z,10.46
2019-04-28T06:53:23.165Z,10.47
2019-04-28T06:55:51.873Z,10.49
2019-04-28T06:58:20.607Z,10.49
2019-04-28T07:00:49.389Z,10.42
2019-04-28T07:03:23.328Z,10.36
2019-04-28T07:05:48.525Z,10.36
2019-04-28T07:08:17.239Z,10.33
2019-04-28T07:10:46.008Z,10.34
2019-04-28T07:13:14.755Z,10.33
2019-04-28T07:15:43.417Z,10.38
2019-04-28T07:18:12.099Z,10.39
2019-04-28T07:20:51.256Z,10.38
2019-04-28T07:23:20.017Z,10.36
2019-04-28T07:25:48.826Z,10.34
2019-04-28T07:28:17.567Z,10.37
2019-04-28T07:30:47.821Z,10.42
2019-04-28T07:33:16.462Z,10.41
2019-04-28T07:35:45.250Z,10.37
2019-04-28T07:38:13.999Z,10.41
2019-04-28T07:40:42.790Z,10.46
2019-04-28T07:43:14.395Z,10.39
2019-04-28T07:45:44.854Z,10.31
2019-04-28T07:48:14.991Z,10.27
2019-04-28T07:50:43.779Z,10.23
2019-04-28T07:53:17.219Z,10.17
2019-04-28T07:55:45.899Z,10.12
2019-04-28T07:58:14.604Z,10.09
2019-04-28T08:00:43.375Z,10.05
2019-04-28T08:03:12.181Z,10.10
2019-04-28T08:05:43.339Z,10.10
2019-04-28T08:08:12.057Z,10.12
2019-04-28T08:10:40.837Z,10.19
2019-04-28T08:13:09.610Z,10.29
2019-04-28T08:15:38.355Z,10.32
2019-04-28T08:18:07.068Z,10.40
2019-04-28T08:20:35.813Z,10.41
2019-04-28T08:23:04.523Z,10.38
2019-04-28T08:25:33.481Z,10.38
2019-04-28T08:28:03.606Z,10.36
2019-04-28T08:30:35.730Z,10.44
2019-04-28T08:33:11.846Z,10.46
2019-04-28T08:35:42.596Z,10.47
2019-04-28T08:38:10.984Z,10.40
2019-04-28T08:40:39.684Z,10.42
2019-04-28T08:43:08.446Z,10.35
2019-04-28T08:45:37.260Z,10.37
2019-04-28T08:48:06.022Z,10.31
2019-04-28T08:50:36.354Z,10.36
2019-04-28T08:53:08.049Z,10.37
2019-04-28T08:55:36.730Z,10.40
2019-04-28T08:58:05.604Z,10.43
2019-04-28T09:00:35.796Z,10.51
2019-04-28T09:03:04.590Z,10.59
2019-04-28T09:05:33.442Z,10.70
2019-04-28T09:08:02.278Z,10.76
2019-04-28T09:10:31.002Z,10.90
2019-04-28T09:12:59.692Z,10.96
2019-04-28T09:15:28.880Z,10.98
2019-04-28T09:17:57.556Z,11.05
2019-04-28T09:20:26.301Z,11.03
2019-04-28T09:22:55.002Z,11.08
2019-04-28T09:25:25.322Z,11.13
2019-04-28T09:27:54.261Z,11.10
2019-04-28T09:30:23.173Z,11.07
2019-04-28T09:32:52.161Z,11.05
2019-04-28T09:35:20.987Z,11.10
2019-04-28T09:37:49.888Z,11.12
2019-04-28T09:40:19.012Z,11.17
2019-04-28T09:43:01.251Z,11.27
2019-04-28T09:45:38.530Z,11.40
2019-04-28T09:48:07.269Z,11.47
2019-04-28T09:50:36.042Z,11.58
2019-04-28T09:53:04.706Z,11.70
2019-04-28T09:55:33.798Z,11.93
2019-04-28T09:58:02.486Z,11.65
2019-04-28T10:00:31.173Z,12.23
2019-04-28T10:02:59.882Z,12.21
2019-04-28T10:05:28.632Z,12.14
2019-04-28T10:07:57.413Z,12.14
2019-04-28T10:10:26.084Z,12.11
2019-04-28T10:12:54.826Z,12.09
2019-04-28T10:15:25.004Z,12.08
2019-04-28T10:17:53.669Z,12.01
2019-04-28T10:20:22.617Z,11.98
2019-04-28T10:22:51.351Z,11.97
2019-04-28T10:25:21.215Z,11.95
2019-04-28T10:27:50.001Z,11.95
2019-04-28T10:30:19.007Z,12.02
2019-04-28T10:32:47.755Z,12.16
2019-04-28T10:35:16.776Z,12.40
2019-04-28T10:37:45.759Z,12.53
2019-04-28T10:40:25.070Z,12.63
2019-04-28T10:42:53.793Z,12.93
2019-04-28T10:45:24.128Z,13.28
2019-04-28T10:47:54.951Z,13.29
2019-04-28T10:50:23.725Z,13.37
2019-04-28T10:52:52.447Z,13.36
2019-04-28T10:55:22.856Z,13.38
2019-04-28T10:57:51.515Z,13.37
2019-04-28T11:00:21.980Z,13.43
2019-04-28T11:02:50.781Z,13.35
2019-04-28T11:05:21.184Z,13.38
2019-04-28T11:07:49.929Z,13.37
2019-04-28T11:10:20.743Z,13.32
2019-04-28T11:12:49.492Z,13.29
2019-04-28T11:15:19.861Z,13.31
2019-04-28T11:17:48.591Z,13.38
2019-04-28T11:20:18.421Z,13.45
2019-04-28T11:22:49.659Z,13.56
2019-04-28T11:25:18.486Z,13.67
2019-04-28T11:27:47.152Z,13.76
2019-04-28T11:30:19.083Z,13.76
2019-04-28T11:32:55.397Z,13.85
2019-04-28T11:35:31.778Z,13.80
2019-04-28T11:38:00.446Z,13.70
2019-04-28T11:40:29.102Z,13.76
2019-04-28T11:43:04.068Z,13.83
2019-04-28T11:45:29.982Z,13.81
2019-04-28T11:48:00.198Z,13.84
2019-04-28T11:50:28.885Z,14.01
2019-04-28T11:52:57.570Z,14.11
2019-04-28T11:55:26.334Z,14.15
2019-04-28T11:57:55.076Z,14.15
2019-04-28T12:00:36.923Z,14.18
2019-04-28T12:03:05.699Z,14.23
2019-04-28T12:05:46.182Z,14.23
2019-04-28T12:08:14.923Z,14.38
2019-04-28T12:10:45.272Z,14.40
2019-04-28T12:13:15.598Z,14.40
2019-04-28T12:15:58.042Z,14.30
2019-04-28T12:18:28.580Z,14.18
2019-04-28T12:20:57.287Z,14.15
2019-04-28T12:23:25.979Z,14.11
2019-04-28T12:25:54.749Z,14.08
2019-04-28T12:28:23.510Z,14.14
2019-04-28T12:30:52.189Z,14.25
2019-04-28T12:33:20.904Z,14.36
2019-04-28T12:35:49.575Z,14.41
2019-04-28T12:38:18.298Z,14.40
2019-04-28T12:40:46.975Z,14.34
2019-04-28T12:43:15.713Z,14.29
2019-04-28T12:45:44.491Z,14.34
2019-04-28T12:48:13.150Z,14.36
2019-04-28T12:50:52.446Z,14.36
2019-04-28T12:53:22.289Z,14.41
2019-04-28T12:55:51.020Z,14.28
2019-04-28T12:58:19.773Z,14.24
2019-04-28T13:00:50.127Z,14.08
2019-04-28T13:03:29.698Z,14.00
2019-04-28T13:06:05.809Z,13.90
2019-04-28T13:08:33.562Z,13.86
2019-04-28T13:11:03.470Z,13.80
2019-04-28T13:13:32.185Z,13.77
2019-04-28T13:16:01.056Z,13.75
2019-04-28T13:18:29.838Z,13.68
2019-04-28T13:20:59.112Z,13.69
2019-04-28T13:23:28.264Z,13.74
2019-04-28T13:25:56.946Z,13.78
2019-04-28T13:28:25.688Z,13.84
2019-04-28T13:30:55.907Z,13.89
2019-04-28T13:33:24.683Z,14.02
2019-04-28T13:35:53.362Z,14.16
2019-04-28T13:38:22.106Z,14.32
2019-04-28T13:40:50.811Z,14.43
2019-04-28T13:43:19.514Z,14.57
2019-04-28T13:45:48.301Z,14.80
2019-04-28T13:48:18.557Z,14.82
2019-04-28T13:50:49.077Z,15.00
2019-04-28T13:53:18.025Z,15.00
2019-04-28T13:55:50.750Z,15.14
2019-04-28T13:58:30.127Z,15.15
2019-04-28T14:01:00.467Z,15.18
2019-04-28T14:03:39.663Z,15.21
2019-04-28T14:06:12.718Z,15.27
2019-04-28T14:08:41.452Z,15.22
2019-04-28T14:11:13.221Z,15.45
2019-04-28T14:13:42.192Z,15.54
2019-04-28T14:16:12.117Z,15.65
2019-04-28T14:18:40.824Z,15.90
2019-04-28T14:21:11.658Z,16.08
2019-04-28T14:23:40.349Z,16.17
2019-04-28T14:26:09.125Z,16.40
2019-04-28T14:28:37.969Z,16.48
2019-04-28T14:31:09.622Z,16.38
2019-04-28T14:33:38.403Z,16.63
2019-04-28T14:36:08.704Z,16.83
2019-04-28T14:38:37.399Z,16.98
2019-04-28T14:41:06.121Z,17.00
2019-04-28T14:43:39.134Z,17.16
2019-04-28T14:46:09.179Z,17.03
2019-04-28T14:48:37.851Z,17.11
2019-04-28T14:51:06.580Z,17.23
2019-04-28T14:53:35.212Z,17.16
2019-04-28T14:56:07.432Z,17.37
2019-04-28T14:58:36.429Z,17.37
2019-04-28T15:01:06.761Z,17.38
2019-04-28T15:03:52.195Z,17.23
2019-04-28T15:06:22.599Z,17.30
2019-04-28T15:08:55.734Z,17.32
2019-04-28T15:11:28.944Z,17.21
2019-04-28T15:13:57.726Z,17.11
2019-04-28T15:16:26.562Z,16.93
2019-04-28T15:18:55.436Z,16.93
2019-04-28T15:21:24.172Z,17.12
2019-04-28T15:23:54.516Z,16.96
2019-04-28T15:26:23.246Z,16.69
2019-04-28T15:28:52.143Z,16.55
2019-04-28T15:31:20.861Z,16.66
2019-04-28T15:33:52.707Z,16.59
2019-04-28T15:36:21.438Z,16.46
2019-04-28T15:38:55.524Z,16.40
2019-04-28T15:41:24.194Z,16.35
2019-04-28T15:43:52.853Z,16.30
2019-04-28T15:46:22.578Z,16.29
2019-04-28T15:48:51.263Z,16.16
2019-04-28T15:51:20.045Z,16.11
2019-04-28T15:53:48.721Z,15.99
2019-04-28T15:56:21.736Z,15.82
2019-04-28T15:58:50.543Z,15.73
2019-04-28T16:01:19.402Z,15.65
2019-04-28T16:03:49.384Z,15.56
2019-04-28T16:06:21.648Z,15.52
2019-04-28T16:08:49.903Z,15.48
2019-04-28T16:11:18.560Z,15.46
2019-04-28T16:13:50.050Z,15.40
2019-04-28T16:16:18.738Z,15.22
2019-04-28T16:18:50.508Z,15.14
2019-04-28T16:21:19.271Z,15.08
2019-04-28T16:23:47.953Z,15.05
2019-04-28T16:26:18.128Z,15.03
2019-04-28T16:28:48.913Z,14.90
2019-04-28T16:31:17.577Z,14.83
2019-04-28T16:33:48.052Z,14.82
2019-04-28T16:36:16.708Z,14.80
2019-04-28T16:38:45.428Z,14.73
2019-04-28T16:41:28.180Z,14.68
2019-04-28T16:44:02.286Z,14.66
2019-04-28T16:46:31.182Z,14.60
2019-04-28T16:48:59.902Z,14.57
2019-04-28T16:51:28.596Z,14.49
2019-04-28T16:53:57.256Z,14.43
2019-04-28T16:56:30.738Z,14.39
2019-04-28T16:59:03.881Z,14.33
2019-04-28T17:01:37.114Z,14.27
2019-04-28T17:04:06.327Z,14.25
2019-04-28T17:06:35.035Z,14.19
2019-04-28T17:09:05.513Z,14.11
2019-04-28T17:11:34.220Z,14.04
2019-04-28T17:14:04.532Z,14.04
2019-04-28T17:16:33.164Z,14.02
2019-04-28T17:19:01.857Z,13.95
2019-04-28T17:21:30.539Z,13.93
2019-04-28T17:24:01.376Z,13.89
2019-04-28T17:26:30.125Z,13.83
2019-04-28T17:28:58.822Z,13.82
2019-04-28T17:31:27.544Z,13.77
2019-04-28T17:33:56.455Z,13.74
2019-04-28T17:36:25.175Z,13.63
2019-04-28T17:38:53.956Z,13.55
2019-04-28T17:41:24.931Z,13.53
2019-04-28T17:43:58.668Z,13.52
2019-04-28T17:46:31.205Z,13.49
2019-04-28T17:49:00.942Z,13.44
2019-04-28T17:51:30.089Z,13.40
2019-04-28T17:53:58.853Z,13.34
2019-04-28T17:56:29.196Z,13.34
2019-04-28T17:58:57.959Z,13.33
2019-04-28T18:01:44.664Z,13.28
2019-04-28T18:04:27.317Z,13.24
2019-04-28T18:07:03.769Z,13.14
2019-04-28T18:09:32.572Z,13.08
2019-04-28T18:12:01.243Z,13.02
2019-04-28T18:14:30.002Z,12.98
2019-04-28T18:17:09.309Z,12.95
2019-04-28T18:19:38.069Z,12.93
2019-04-28T18:22:06.835Z,12.91
2019-04-28T18:24:35.589Z,12.86
2019-04-28T18:27:04.631Z,12.77
2019-04-28T18:29:34.931Z,12.68
2019-04-28T18:32:05.283Z,12.66
2019-04-28T18:34:53.695Z,12.64
2019-04-28T18:37:40.272Z,12.60
2019-04-28T18:40:13.585Z,12.53
2019-04-28T18:42:43.911Z,12.43
2019-04-28T18:45:13.090Z,12.38
2019-04-28T18:47:41.857Z,12.31
2019-04-28T18:50:10.964Z,12.26
2019-04-28T18:52:39.707Z,12.23
2019-04-28T18:55:08.552Z,12.16
2019-04-28T18:57:38.724Z,12.14
2019-04-28T19:00:08.033Z,12.08
2019-04-28T19:02:38.921Z,12.01
2019-04-28T19:05:10.572Z,11.98
2019-04-28T19:07:49.852Z,11.92
2019-04-28T19:10:32.011Z,11.87
2019-04-28T19:13:05.341Z,11.81
2019-04-28T19:15:36.178Z,11.73
2019-04-28T19:18:06.496Z,11.66
2019-04-28T19:20:35.316Z,11.61
2019-04-28T19:23:04.057Z,11.50
2019-04-28T19:25:35.251Z,11.47
2019-04-28T19:28:03.133Z,11.42
2019-04-28T19:30:31.906Z,11.36
2019-04-28T19:33:00.654Z,11.31
2019-04-28T19:35:29.444Z,11.26
2019-04-28T19:37:58.219Z,11.23
2019-04-28T19:40:28.539Z,11.21
2019-04-28T19:42:57.312Z,11.16
2019-04-28T19:45:26.078Z,11.10
2019-04-28T19:47:57.447Z,11.05
2019-04-28T19:50:26.798Z,11.01
2019-04-28T19:52:56.345Z,10.94
2019-04-28T19:55:27.174Z,10.87
2019-04-28T19:58:03.318Z,10.83
2019-04-28T20:00:33.682Z,10.77
2019-04-28T20:03:05.310Z,10.72
2019-04-28T20:05:34.079Z,10.66
2019-04-28T20:08:02.743Z,10.63
2019-04-28T20:10:31.591Z,10.58
2019-04-28T20:13:00.269Z,10.54
2019-04-28T20:15:28.946Z,10.50
2019-04-28T20:17:59.081Z,10.44
2019-04-28T20:20:27.849Z,10.43
2019-04-28T20:22:56.511Z,10.38
2019-04-28T20:25:25.207Z,10.37
2019-04-28T20:27:53.934Z,10.32
2019-04-28T20:30:22.773Z,10.28
2019-04-28T20:32:51.518Z,10.24
2019-04-28T20:35:21.846Z,10.24
2019-04-28T20:38:01.048Z,10.19
2019-04-28T20:40:46.400Z,10.12
2019-04-28T20:43:16.750Z,10.07
2019-04-28T20:45:45.406Z,10.00
2019-04-28T20:48:14.106Z,10.00
2019-04-28T20:50:45.746Z,9.95
2019-04-28T20:53:14.908Z,9.92
2019-04-28T20:55:43.582Z,9.87
2019-04-28T20:58:12.294Z,9.87
2019-04-28T21:00:41.017Z,9.75
2019-04-28T21:03:09.714Z,9.67
2019-04-28T21:05:38.411Z,9.67
2019-04-28T21:08:07.425Z,9.69
2019-04-28T21:10:38.369Z,9.64
2019-04-28T21:13:07.947Z,9.62
2019-04-28T21:15:36.637Z,9.59
2019-04-28T21:18:05.434Z,9.50
2019-04-28T21:20:34.091Z,9.41
2019-04-28T21:23:04.199Z,9.34
2019-04-28T21:25:32.814Z,9.24
2019-04-28T21:28:01.513Z,9.15
2019-04-28T21:30:31.266Z,9.19
2019-04-28T21:33:00.851Z,9.21
2019-04-28T21:35:29.519Z,9.27
2019-04-28T21:37:58.204Z,9.33
2019-04-28T21:40:27.591Z,9.33
2019-04-28T21:43:03.697Z,9.34
2019-04-28T21:45:43.221Z,9.32
2019-04-28T21:48:13.527Z,9.28
2019-04-28T21:50:42.297Z,9.31
2019-04-28T21:53:10.966Z,9.34
2019-04-28T21:55:39.668Z,9.28
2019-04-28T21:58:08.469Z,9.22
2019-04-28T22:00:53.621Z,9.18
2019-04-28T22:03:21.499Z,9.18
2019-04-28T22:05:52.015Z,9.18
2019-04-28T22:08:20.686Z,9.15
2019-04-28T22:10:49.364Z,9.13
2019-04-28T22:13:18.024Z,9.11
2019-04-28T22:15:46.721Z,9.06
2019-04-28T22:18:15.455Z,9.08
2019-04-28T22:20:44.150Z,9.04
2019-04-28T22:23:20.096Z,9.02
2019-04-28T22:25:48.847Z,9.05
2019-04-28T22:28:17.513Z,9.07
2019-04-28T22:30:46.278Z,9.06
2019-04-28T22:33:15.377Z,9.05
2019-04-28T22:35:46.600Z,9.03
2019-04-28T22:38:15.331Z,9.05
2019-04-28T22:40:44.857Z,9.05
2019-04-28T22:43:13.507Z,9.01
2019-04-28T22:45:42.392Z,9.00
2019-04-28T22:48:12.730Z,8.98
2019-04-28T22:50:45.340Z,8.97
2019-04-28T22:53:15.680Z,8.97
2019-04-28T22:55:52.026Z,8.99
2019-04-28T22:58:26.658Z,8.97
2019-04-28T23:00:56.977Z,9.00
2019-04-28T23:03:27.313Z,9.01
2019-04-28T23:05:56.042Z,9.01
2019-04-28T23:08:24.734Z,9.04
2019-04-28T23:10:53.578Z,9.02
2019-04-28T23:13:23.239Z,9.06
2019-04-28T23:15:52.158Z,9.05
2019-04-28T23:18:21.022Z,9.06
2019-04-28T23:20:52.041Z,9.07
2019-04-28T23:23:20.764Z,9.08
2019-04-28T23:25:49.476Z,9.09
2019-04-28T23:28:18.274Z,9.06
2019-04-28T23:30:47.019Z,9.03
2019-04-28T23:33:15.679Z,9.03
2019-04-28T23:35:44.445Z,9.02
2019-04-28T23:38:14.557Z,9.06
2019-04-28T23:40:45.466Z,9.04
2019-04-28T23:43:21.726Z,9.04
2019-04-28T23:45:50.427Z,9.05
2019-04-28T23:48:19.091Z,9.00
2019-04-28T23:50:49.397Z,8.99
2019-04-28T23:53:19.747Z,8.97
2019-04-28T23:55:49.843Z,8.93
2019-04-28T23:58:18.617Z,8.94
